createdAt,value
2023-05-13T00:00:49.519Z,76.40
2023-05-13T00:03:17.211Z,76.40
2023-05-13T00:05:45.724Z,76.50
2023-05-13T00:08:13.157Z,76.40
2023-05-13T00:10:40.328Z,76.30
2023-05-13T00:13:08.416Z,76.40
2023-05-13T00:15:35.427Z,76.50
2023-05-13T00:18:05.110Z,76.50
2023-05-13T00:20:32.329Z,76.50
2023-05-13T00:22:59.338Z,76.50
2023-05-13T00:25:28.992Z,76.60
2023-05-13T00:27:56.114Z,76.50
2023-05-13T00:30:23.731Z,76.50
2023-05-13T00:32:53.602Z,76.60
2023-05-13T00:35:20.803Z,76.50
2023-05-13T00:37:48.268Z,76.50
2023-05-13T00:40:24.441Z,76.50
2023-05-13T00:42:52.197Z,76.30
2023-05-13T00:45:20.385Z,76.40
2023-05-13T00:47:48.917Z,76.40
2023-05-13T00:50:16.035Z,76.40
2023-05-13T00:52:44.367Z,76.40
2023-05-13T00:55:11.620Z,76.40
2023-05-13T00:57:40.637Z,76.50
2023-05-13T01:00:10.593Z,76.60
2023-05-13T01:02:55.736Z,76.70
2023-05-13T01:05:42.401Z,76.80
2023-05-13T01:08:21.437Z,76.80
2023-05-13T01:11:00.205Z,76.90
2023-05-13T01:13:32.334Z,77.60
2023-05-13T01:16:10.701Z,77.00
2023-05-13T01:18:43.555Z,77.10
2023-05-13T01:21:13.135Z,77.20
2023-05-13T01:23:40.403Z,77.30
2023-05-13T01:26:07.646Z,77.50
2023-05-13T01:28:35.126Z,77.50
2023-05-13T01:31:06.652Z,77.60
2023-05-13T01:33:34.009Z,77.70
2023-05-13T01:36:02.608Z,77.80
2023-05-13T01:38:32.050Z,77.90
2023-05-13T01:41:00.264Z,78.00
2023-05-13T01:43:28.997Z,78.10
2023-05-13T01:46:00.387Z,78.10
2023-05-13T01:48:33.852Z,78.10
2023-05-13T01:51:01.028Z,78.40
2023-05-13T01:53:28.406Z,78.30
2023-05-13T01:55:55.629Z,78.40
2023-05-13T01:58:22.816Z,78.50
2023-05-13T02:00:50.392Z,78.50
2023-05-13T02:03:19.036Z,78.60
2023-05-13T02:05:48.652Z,78.60
2023-05-13T02:08:15.882Z,78.80
2023-05-13T02:10:54.398Z,78.90
2023-05-13T02:13:21.560Z,78.90
2023-05-13T02:15:48.626Z,78.90
2023-05-13T02:18:15.829Z,78.90
2023-05-13T02:20:42.861Z,79.00
2023-05-13T02:23:10.164Z,79.00
2023-05-13T02:25:41.505Z,79.10
2023-05-13T02:28:08.858Z,79.00
2023-05-13T02:30:38.515Z,79.20
2023-05-13T02:33:07.708Z,79.30
2023-05-13T02:35:34.886Z,79.30
2023-05-13T02:38:04.449Z,79.40
2023-05-13T02:40:34.586Z,79.40
2023-05-13T02:43:01.799Z,79.50
2023-05-13T02:45:42.210Z,79.50
2023-05-13T02:48:13.442Z,79.60
2023-05-13T02:50:41.096Z,79.60
2023-05-13T02:53:12.887Z,79.70
2023-05-13T02:55:45.810Z,79.80
2023-05-13T02:58:13.288Z,79.80
2023-05-13T03:00:40.913Z,79.90
2023-05-13T03:03:08.323Z,80.00
2023-05-13T03:05:35.544Z,80.00
2023-05-13T03:08:02.765Z,80.00
2023-05-13T03:10:29.740Z,80.10
2023-05-13T03:12:58.931Z,80.20
2023-05-13T03:15:26.059Z,80.30
2023-05-13T03:17:53.360Z,80.40
2023-05-13T03:20:21.836Z,80.40
2023-05-13T03:22:49.909Z,80.50
2023-05-13T03:25:17.141Z,80.70
2023-05-13T03:27:49.284Z,80.90
2023-05-13T03:30:18.790Z,80.90
2023-05-13T03:32:54.719Z,80.90
2023-05-13T03:35:23.600Z,81.10
2023-05-13T03:37:50.952Z,81.10
2023-05-13T03:40:19.274Z,81.20
2023-05-13T03:42:46.748Z,81.40
2023-05-13T03:45:13.836Z,81.40
2023-05-13T03:47:43.777Z,81.40
2023-05-13T03:50:15.421Z,81.50
2023-05-13T03:52:46.775Z,81.70
2023-05-13T03:55:15.194Z,81.70
2023-05-13T03:57:45.192Z,81.80
2023-05-13T04:00:13.269Z,82.50
2023-05-13T04:02:43.391Z,81.90
2023-05-13T04:05:13.916Z,81.90
2023-05-13T04:07:41.559Z,82.00
2023-05-13T04:10:12.331Z,82.10
2023-05-13T04:12:41.057Z,82.10
2023-05-13T04:15:08.666Z,82.10
2023-05-13T04:17:35.897Z,82.10
2023-05-13T04:20:06.568Z,82.20
2023-05-13T04:22:35.701Z,82.20
2023-05-13T04:25:03.018Z,82.30
2023-05-13T04:27:30.291Z,82.30
2023-05-13T04:30:08.614Z,82.30
2023-05-13T04:32:37.136Z,82.30
2023-05-13T04:35:04.479Z,82.40
2023-05-13T04:37:33.021Z,82.40
2023-05-13T04:40:08.173Z,82.50
2023-05-13T04:42:35.810Z,82.70
2023-05-13T04:45:03.123Z,82.60
2023-05-13T04:47:30.564Z,82.60
2023-05-13T04:49:57.683Z,82.50
2023-05-13T04:52:25.428Z,82.60
2023-05-13T04:54:52.802Z,82.70
2023-05-13T04:57:19.942Z,82.70
2023-05-13T04:59:47.223Z,82.80
2023-05-13T05:02:16.693Z,82.80
2023-05-13T05:04:46.235Z,82.90
2023-05-13T05:07:14.842Z,82.90
2023-05-13T05:09:42.362Z,82.90
2023-05-13T05:12:09.914Z,82.80
2023-05-13T05:14:43.348Z,82.80
2023-05-13T05:17:10.469Z,82.70
2023-05-13T05:19:37.705Z,82.80
2023-05-13T05:22:05.488Z,82.60
2023-05-13T05:24:33.602Z,82.70
2023-05-13T05:27:00.979Z,82.70
2023-05-13T05:29:28.885Z,82.70
2023-05-13T05:31:56.310Z,82.80
2023-05-13T05:34:26.148Z,82.80
2023-05-13T05:36:55.977Z,82.80
2023-05-13T05:39:24.095Z,82.90
2023-05-13T05:41:51.344Z,82.80
2023-05-13T05:44:19.158Z,82.70
2023-05-13T05:46:46.573Z,82.50
2023-05-13T05:49:13.679Z,82.30
2023-05-13T05:51:40.790Z,82.10
2023-05-13T05:54:08.835Z,82.50
2023-05-13T05:56:39.774Z,81.70
2023-05-13T05:59:09.388Z,81.60
2023-05-13T06:01:36.801Z,81.40
2023-05-13T06:04:07.983Z,81.10
2023-05-13T06:06:35.821Z,81.00
2023-05-13T06:09:03.660Z,81.00
2023-05-13T06:11:33.182Z,81.20
2023-05-13T06:14:06.002Z,81.30
2023-05-13T06:16:33.224Z,81.40
2023-05-13T06:19:00.591Z,81.20
2023-05-13T06:21:27.865Z,81.10
2023-05-13T06:23:57.560Z,81.20
2023-05-13T06:26:25.170Z,81.30
2023-05-13T06:28:54.302Z,81.30
2023-05-13T06:31:21.688Z,81.10
2023-05-13T06:33:48.729Z,80.90
2023-05-13T06:36:15.950Z,80.60
2023-05-13T06:38:43.225Z,80.40
2023-05-13T06:41:13.094Z,80.20
2023-05-13T06:43:40.613Z,80.00
2023-05-13T06:46:21.789Z,79.70
2023-05-13T06:48:53.848Z,79.60
2023-05-13T06:51:21.112Z,79.50
2023-05-13T06:53:48.666Z,79.30
2023-05-13T06:56:16.134Z,79.20
2023-05-13T06:58:43.405Z,79.00
2023-05-13T07:01:10.565Z,78.60
2023-05-13T07:03:38.258Z,78.60
2023-05-13T07:06:05.524Z,78.30
2023-05-13T07:08:32.596Z,78.10
2023-05-13T07:11:03.262Z,78.00
2023-05-13T07:13:33.570Z,78.10
2023-05-13T07:16:02.565Z,78.10
2023-05-13T07:18:31.191Z,78.30
2023-05-13T07:21:01.522Z,78.40
2023-05-13T07:23:28.795Z,78.10
2023-05-13T07:25:56.522Z,77.70
2023-05-13T07:28:27.510Z,77.20
2023-05-13T07:30:54.684Z,77.10
2023-05-13T07:33:21.811Z,76.90
2023-05-13T07:35:49.231Z,76.70
2023-05-13T07:38:16.957Z,76.50
2023-05-13T07:40:44.072Z,76.30
2023-05-13T07:43:11.874Z,76.20
2023-05-13T07:45:39.463Z,76.00
2023-05-13T07:48:06.808Z,75.90
2023-05-13T07:50:34.094Z,75.60
2023-05-13T07:53:02.592Z,75.10
2023-05-13T07:55:29.733Z,75.00
2023-05-13T07:57:56.812Z,74.70
2023-05-13T08:00:26.996Z,74.40
2023-05-13T08:02:59.238Z,74.30
2023-05-13T08:05:31.220Z,73.90
2023-05-13T08:08:01.939Z,73.70
2023-05-13T08:10:32.810Z,73.40
2023-05-13T08:13:01.083Z,73.20
2023-05-13T08:15:29.590Z,72.60
2023-05-13T08:18:01.082Z,72.60
2023-05-13T08:20:31.896Z,72.10
2023-05-13T08:23:02.179Z,71.80
2023-05-13T08:25:29.403Z,71.60
2023-05-13T08:27:57.741Z,71.50
2023-05-13T08:30:24.914Z,71.20
2023-05-13T08:32:54.313Z,70.80
2023-05-13T08:35:22.079Z,70.70
2023-05-13T08:38:33.909Z,70.60
2023-05-13T08:41:09.255Z,70.30
2023-05-13T08:44:37.570Z,70.30
2023-05-13T08:47:53.014Z,70.00
2023-05-13T08:50:24.076Z,69.30
2023-05-13T08:52:53.318Z,68.90
2023-05-13T08:55:21.467Z,68.50
2023-05-13T08:57:48.797Z,68.40
2023-05-13T09:01:00.720Z,68.10
2023-05-13T09:07:25.466Z,67.10
2023-05-13T09:10:03.280Z,67.00
2023-05-13T09:12:50.199Z,66.60
2023-05-13T09:15:23.008Z,66.00
2023-05-13T09:18:01.733Z,65.70
2023-05-13T09:20:40.838Z,65.10
2023-05-13T09:23:27.273Z,65.20
2023-05-13T09:26:05.277Z,64.40
2023-05-13T09:28:32.523Z,64.40
2023-05-13T09:30:59.526Z,64.50
2023-05-13T09:33:33.734Z,64.20
2023-05-13T09:36:20.896Z,64.10
2023-05-13T09:38:55.323Z,63.80
2023-05-13T09:41:22.506Z,62.80
2023-05-13T09:43:52.512Z,62.60
2023-05-13T09:51:50.360Z,62.20
2023-05-13T09:54:49.521Z,62.10
2023-05-13T09:57:59.400Z,61.80
2023-05-13T10:03:55.974Z,61.50
2023-05-13T10:06:40.173Z,61.20
2023-05-13T10:09:10.148Z,61.20
2023-05-13T10:11:40.402Z,60.70
2023-05-13T10:14:08.577Z,60.40
2023-05-13T10:16:38.880Z,60.30
2023-05-13T10:19:10.957Z,59.90
2023-05-13T10:21:39.385Z,59.60
2023-05-13T10:25:02.497Z,59.70
2023-05-13T10:27:32.249Z,59.10
2023-05-13T10:30:05.353Z,59.10
2023-05-13T10:41:04.761Z,58.20
2023-05-13T10:43:33.054Z,58.20
2023-05-13T10:46:08.727Z,58.00
2023-05-13T10:48:48.044Z,57.00
2023-05-13T10:51:53.697Z,56.80
2023-05-13T10:54:38.099Z,56.60
2023-05-13T10:57:18.488Z,55.80
2023-05-13T11:00:20.856Z,55.70
2023-05-13T11:02:50.681Z,55.30
2023-05-13T11:06:04.873Z,55.20
2023-05-13T11:08:49.172Z,55.20
2023-05-13T11:11:31.173Z,54.50
2023-05-13T11:14:49.736Z,53.80
2023-05-13T11:17:38.941Z,53.70
2023-05-13T11:20:11.090Z,53.80
2023-05-13T11:26:20.266Z,53.40
2023-05-13T11:29:09.912Z,52.40
2023-05-13T11:32:24.483Z,51.70
2023-05-13T11:34:59.929Z,50.60
2023-05-13T11:37:49.658Z,51.00
2023-05-13T11:40:37.758Z,50.30
2023-05-13T11:43:06.823Z,49.90
2023-05-13T11:45:45.024Z,49.70
2023-05-13T11:48:23.519Z,49.50
2023-05-13T11:50:54.251Z,49.60
2023-05-13T11:53:25.104Z,50.20
2023-05-13T11:56:12.984Z,50.40
2023-05-13T11:59:21.565Z,49.90
2023-05-13T12:02:15.420Z,49.80
2023-05-13T12:04:53.262Z,50.20
2023-05-13T12:07:29.958Z,50.00
2023-05-13T12:10:01.518Z,49.30
2023-05-13T12:12:30.061Z,48.70
2023-05-13T12:15:02.563Z,48.20
2023-05-13T12:17:47.853Z,48.20
2023-05-13T12:20:43.695Z,49.20
2023-05-13T12:23:17.110Z,49.10
2023-05-13T12:25:45.784Z,47.90
2023-05-13T12:28:18.122Z,47.70
2023-05-13T12:31:09.563Z,47.20
2023-05-13T12:33:49.831Z,46.50
2023-05-13T12:36:25.657Z,46.60
2023-05-13T12:39:10.182Z,46.70
2023-05-13T12:41:39.688Z,46.80
2023-05-13T12:44:17.389Z,47.70
2023-05-13T12:47:07.394Z,48.40
2023-05-13T12:49:34.978Z,48.10
2023-05-13T12:52:04.823Z,47.00
2023-05-13T12:54:31.895Z,45.90
2023-05-13T12:56:59.094Z,45.00
2023-05-13T12:59:29.583Z,44.50
2023-05-13T13:01:57.552Z,43.80
2023-05-13T13:07:25.012Z,43.20
2023-05-13T13:09:52.214Z,43.00
2023-05-13T13:12:19.359Z,42.40
2023-05-13T13:14:49.175Z,42.60
2023-05-13T13:17:56.316Z,42.90
2023-05-13T13:20:34.501Z,44.10
2023-05-13T13:23:04.291Z,44.90
2023-05-13T13:25:33.086Z,44.70
2023-05-13T13:28:00.171Z,44.70
2023-05-13T13:30:35.387Z,44.50
2023-05-13T13:36:33.039Z,42.50
2023-05-13T13:39:00.239Z,43.40
2023-05-13T13:41:27.299Z,44.40
2023-05-13T13:43:54.538Z,44.90
2023-05-13T13:46:24.047Z,43.50
2023-05-13T13:48:52.272Z,42.40
2023-05-13T13:51:35.911Z,41.80
2023-05-13T13:54:07.345Z,41.30
2023-05-13T13:56:37.965Z,41.90
2023-05-13T13:59:05.457Z,41.70
2023-05-13T14:01:34.894Z,41.20
2023-05-13T14:04:30.271Z,40.30
2023-05-13T14:06:57.856Z,39.70
2023-05-13T14:09:28.443Z,40.60
2023-05-13T14:11:55.706Z,39.40
2023-05-13T14:14:24.819Z,39.30
2023-05-13T14:16:52.076Z,40.20
2023-05-13T14:19:19.192Z,41.20
2023-05-13T14:21:49.194Z,41.20
2023-05-13T14:24:16.109Z,40.20
2023-05-13T14:26:50.476Z,39.30
2023-05-13T14:29:20.114Z,38.40
2023-05-13T14:32:01.490Z,38.20
2023-05-13T14:38:30.200Z,38.20
2023-05-13T14:41:31.150Z,39.20
2023-05-13T14:44:22.954Z,41.10
2023-05-13T14:47:07.032Z,40.60
2023-05-13T14:49:54.151Z,39.60
2023-05-13T14:52:53.624Z,38.90
2023-05-13T14:55:29.035Z,39.30
2023-05-13T14:57:59.591Z,38.80
2023-05-13T15:01:14.435Z,37.80
2023-05-13T15:03:51.131Z,36.90
2023-05-13T15:06:29.937Z,36.70
2023-05-13T15:08:57.633Z,36.10
2023-05-13T15:11:27.512Z,36.30
2023-05-13T15:13:54.983Z,36.60
2023-05-13T15:16:22.607Z,36.40
2023-05-13T15:18:50.870Z,36.00
2023-05-13T15:21:19.340Z,36.60
2023-05-13T15:23:46.726Z,37.80
2023-05-13T15:26:13.947Z,38.50
2023-05-13T15:28:41.047Z,37.90
2023-05-13T15:31:16.972Z,37.10
2023-05-13T15:33:49.458Z,36.20
2023-05-13T15:36:20.230Z,35.30
2023-05-13T15:38:50.062Z,35.00
2023-05-13T15:41:20.369Z,35.10
2023-05-13T15:43:47.549Z,34.60
2023-05-13T15:46:14.739Z,35.40
2023-05-13T15:48:42.076Z,35.30
2023-05-13T15:51:09.266Z,35.10
2023-05-13T15:53:38.894Z,34.80
2023-05-13T15:56:12.279Z,35.30
2023-05-13T15:58:39.352Z,35.60
2023-05-13T16:01:18.561Z,35.30
2023-05-13T16:03:45.812Z,35.10
2023-05-13T16:06:15.913Z,34.80
2023-05-13T16:08:43.011Z,34.40
2023-05-13T16:11:11.925Z,34.10
2023-05-13T16:13:40.032Z,34.00
2023-05-13T16:16:07.624Z,33.90
2023-05-13T16:18:34.798Z,33.50
2023-05-13T16:21:05.876Z,33.70
2023-05-13T16:23:33.092Z,33.40
2023-05-13T16:26:00.317Z,33.50
2023-05-13T16:28:27.314Z,33.50
2023-05-13T16:30:57.321Z,33.40
2023-05-13T16:33:25.493Z,33.60
2023-05-13T16:35:52.434Z,33.60
2023-05-13T16:38:22.805Z,33.70
2023-05-13T16:40:52.807Z,33.50
2023-05-13T16:43:22.786Z,33.30
2023-05-13T16:45:51.264Z,33.40
2023-05-13T16:48:18.744Z,34.00
2023-05-13T16:50:45.904Z,35.00
2023-05-13T16:53:16.828Z,35.20
2023-05-13T16:56:05.600Z,34.70
2023-05-13T16:58:35.806Z,34.10
2023-05-13T17:01:03.518Z,33.80
2023-05-13T17:03:30.916Z,33.40
2023-05-13T17:06:02.429Z,32.90
2023-05-13T17:08:29.348Z,33.00
2023-05-13T17:10:56.351Z,33.50
2023-05-13T17:13:42.892Z,33.30
2023-05-13T17:16:11.053Z,33.00
2023-05-13T17:19:23.588Z,33.20
2023-05-13T17:21:55.867Z,33.30
2023-05-13T17:24:23.227Z,34.10
2023-05-13T17:26:50.579Z,33.50
2023-05-13T17:29:17.761Z,33.40
2023-05-13T17:31:48.295Z,33.30
2023-05-13T17:34:15.551Z,33.40
2023-05-13T17:36:42.597Z,33.40
2023-05-13T17:39:09.767Z,33.40
2023-05-13T17:41:38.366Z,33.40
2023-05-13T17:44:08.349Z,33.70
2023-05-13T17:46:36.232Z,34.00
2023-05-13T17:49:06.724Z,34.20
2023-05-13T17:51:38.830Z,34.10
2023-05-13T17:54:37.516Z,34.20
2023-05-13T17:57:04.880Z,34.60
2023-05-13T17:59:31.894Z,35.20
2023-05-13T18:01:59.126Z,36.20
2023-05-13T18:04:26.208Z,37.30
2023-05-13T18:06:53.235Z,38.00
2023-05-13T18:09:20.373Z,38.60
2023-05-13T18:11:50.088Z,39.00
2023-05-13T18:14:17.250Z,39.30
2023-05-13T18:16:44.410Z,39.50
2023-05-13T18:19:11.663Z,39.80
2023-05-13T18:21:38.828Z,40.20
2023-05-13T18:24:06.452Z,40.30
2023-05-13T18:26:33.844Z,40.50
2023-05-13T18:29:03.969Z,40.70
2023-05-13T18:31:34.835Z,40.90
2023-05-13T18:34:02.942Z,41.00
2023-05-13T18:36:30.999Z,41.30
2023-05-13T18:38:58.040Z,41.50
2023-05-13T18:41:24.981Z,41.70
2023-05-13T18:43:51.994Z,41.90
2023-05-13T18:46:19.674Z,42.20
2023-05-13T18:48:46.659Z,42.40
2023-05-13T18:51:14.512Z,42.60
2023-05-13T18:53:46.575Z,42.80
2023-05-13T18:56:17.336Z,43.00
2023-05-13T18:58:46.733Z,43.20
2023-05-13T19:01:15.838Z,43.50
2023-05-13T19:03:43.136Z,44.30
2023-05-13T19:06:10.325Z,43.90
2023-05-13T19:08:37.302Z,44.30
2023-05-13T19:11:04.587Z,44.50
2023-05-13T19:13:43.431Z,44.80
2023-05-13T19:16:13.597Z,45.30
2023-05-13T19:18:40.822Z,45.50
2023-05-13T19:21:08.106Z,45.90
2023-05-13T19:23:35.149Z,46.10
2023-05-13T19:26:02.340Z,46.40
2023-05-13T19:28:32.769Z,46.80
2023-05-13T19:30:59.855Z,47.00
2023-05-13T19:33:27.279Z,47.20
2023-05-13T19:35:54.694Z,47.60
2023-05-13T19:38:22.304Z,48.00
2023-05-13T19:40:52.769Z,48.20
2023-05-13T19:43:20.079Z,48.50
2023-05-13T19:45:47.260Z,48.70
2023-05-13T19:48:14.681Z,49.00
2023-05-13T19:50:42.163Z,49.50
2023-05-13T19:53:09.220Z,49.50
2023-05-13T19:55:36.271Z,49.70
2023-05-13T19:58:06.611Z,50.20
2023-05-13T20:00:33.605Z,50.40
2023-05-13T20:03:00.750Z,50.70
2023-05-13T20:05:30.567Z,50.90
2023-05-13T20:08:06.536Z,51.00
2023-05-13T20:10:36.847Z,51.10
2023-05-13T20:13:08.202Z,51.40
2023-05-13T20:15:36.599Z,51.60
2023-05-13T20:18:05.661Z,51.70
2023-05-13T20:20:32.958Z,51.90
2023-05-13T20:23:00.532Z,52.00
2023-05-13T20:25:27.744Z,52.30
2023-05-13T20:27:54.826Z,52.40
2023-05-13T20:30:23.738Z,52.50
2023-05-13T20:32:51.559Z,52.80
2023-05-13T20:35:18.665Z,53.00
2023-05-13T20:37:45.935Z,53.20
2023-05-13T20:40:13.236Z,53.30
2023-05-13T20:42:40.318Z,53.50
2023-05-13T20:45:08.766Z,54.00
2023-05-13T20:47:41.816Z,54.00
2023-05-13T20:50:09.483Z,54.20
2023-05-13T20:52:36.901Z,54.30
2023-05-13T20:55:05.028Z,54.50
2023-05-13T20:57:32.115Z,54.70
2023-05-13T21:00:06.095Z,55.00
2023-05-13T21:02:36.394Z,55.20
2023-05-13T21:05:07.503Z,55.30
2023-05-13T21:07:35.569Z,55.40
2023-05-13T21:10:02.783Z,55.80
2023-05-13T21:12:29.888Z,55.90
2023-05-13T21:14:59.408Z,56.20
2023-05-13T21:17:31.200Z,56.50
2023-05-13T21:19:58.509Z,56.70
2023-05-13T21:22:25.573Z,57.00
2023-05-13T21:24:55.784Z,57.10
2023-05-13T21:27:25.764Z,57.20
2023-05-13T21:29:52.840Z,57.30
2023-05-13T21:32:19.952Z,57.50
2023-05-13T21:34:47.116Z,57.70
2023-05-13T21:37:14.576Z,57.80
2023-05-13T21:39:41.875Z,57.90
2023-05-13T21:42:09.375Z,58.00
2023-05-13T21:44:36.783Z,58.30
2023-05-13T21:47:13.532Z,58.40
2023-05-13T21:49:40.684Z,58.50
2023-05-13T21:52:07.662Z,58.60
2023-05-13T21:54:41.101Z,58.80
2023-05-13T21:57:09.064Z,58.80
2023-05-13T21:59:36.270Z,58.80
2023-05-13T22:02:03.686Z,59.00
2023-05-13T22:04:30.869Z,59.20
2023-05-13T22:07:01.960Z,59.10
2023-05-13T22:09:29.520Z,59.20
2023-05-13T22:11:56.756Z,59.30
2023-05-13T22:14:28.858Z,59.50
2023-05-13T22:17:07.763Z,59.40
2023-05-13T22:19:36.154Z,59.80
2023-05-13T22:22:03.662Z,59.90
2023-05-13T22:24:31.515Z,60.00
2023-05-13T22:27:00.674Z,60.20
2023-05-13T22:29:28.441Z,60.30
2023-05-13T22:31:57.575Z,60.50
2023-05-13T22:34:26.114Z,60.70
2023-05-13T22:36:53.381Z,61.10
2023-05-13T22:39:20.596Z,61.20
2023-05-13T22:41:47.973Z,61.40
2023-05-13T22:44:15.063Z,61.80
2023-05-13T22:46:42.312Z,61.80
2023-05-13T22:49:12.392Z,62.20
2023-05-13T22:51:39.613Z,62.20
2023-05-13T22:54:07.177Z,62.40
2023-05-13T22:56:34.335Z,62.50
2023-05-13T22:59:01.493Z,62.80
2023-05-13T23:01:28.812Z,62.90
2023-05-13T23:03:56.114Z,62.90
2023-05-13T23:06:23.686Z,63.00
2023-05-13T23:08:51.276Z,63.10
2023-05-13T23:11:18.581Z,63.20
2023-05-13T23:13:45.676Z,63.30
2023-05-13T23:16:13.154Z,63.40
2023-05-13T23:18:40.459Z,63.60
2023-05-13T23:21:09.295Z,63.60
2023-05-13T23:23:36.437Z,63.80
2023-05-13T23:26:06.064Z,64.00
2023-05-13T23:28:36.768Z,64.20
2023-05-13T23:31:09.081Z,64.30
2023-05-13T23:33:36.416Z,64.50
2023-05-13T23:36:06.408Z,64.80
2023-05-13T23:38:33.825Z,64.90
2023-05-13T23:41:01.175Z,64.90
2023-05-13T23:43:28.267Z,65.20
2023-05-13T23:45:55.371Z,65.20
2023-05-13T23:48:22.626Z,65.40
2023-05-13T23:50:49.793Z,65.40
2023-05-13T23:53:16.873Z,65.60
2023-05-13T23:55:43.987Z,65.70
2023-05-13T23:58:16.138Z,65.90
